sensor_id;sensor_type;location;lat;lon;timestamp;pressure;altitude;pressure_sealevel;temperature;humidity
63115;BME280;49208;50.874;6.466;2023-04-20T06:01:23;100624.50;;;5.33;76.84
63115;BME280;49208;50.874;6.466;2023-04-20T06:03:49;100618.34;;;5.34;77.52
63115;BME280;49208;50.874;6.466;2023-04-20T06:06:14;100614.84;;;5.32;78.08
63115;BME280;49208;50.874;6.466;2023-04-20T06:08:40;100623.63;;;5.34;79.47
63115;BME280;49208;50.874;6.466;2023-04-20T06:11:05;100631.53;;;5.34;79.55
63115;BME280;49208;50.874;6.466;2023-04-20T06:13:31;100628.94;;;5.31;80.89
63115;BME280;49208;50.874;6.466;2023-04-20T06:15:56;100623.75;;;5.23;80.94
63115;BME280;49208;50.874;6.466;2023-04-20T06:18:21;100628.25;;;5.15;81.04
63115;BME280;49208;50.874;6.466;2023-04-20T06:20:47;100630.09;;;5.06;81.38
63115;BME280;49208;50.874;6.466;2023-04-20T06:23:12;100630.09;;;5.03;83.43
63115;BME280;49208;50.874;6.466;2023-04-20T06:25:38;100616.09;;;4.97;85.33
63115;BME280;49208;50.874;6.466;2023-04-20T06:28:04;100609.97;;;4.95;85.35
63115;BME280;49208;50.874;6.466;2023-04-20T06:30:30;100611.75;;;4.93;86.82
63115;BME280;49208;50.874;6.466;2023-04-20T06:32:58;100605.56;;;4.95;86.94
63115;BME280;49208;50.874;6.466;2023-04-20T06:35:24;100604.69;;;4.96;89.71
63115;BME280;49208;50.874;6.466;2023-04-20T06:37:50;100595.84;;;5.00;89.80
63115;BME280;49208;50.874;6.466;2023-04-20T06:40:15;100592.28;;;5.04;90.29
63115;BME280;49208;50.874;6.466;2023-04-20T06:42:41;100586.91;;;5.12;89.93
63115;BME280;49208;50.874;6.466;2023-04-20T06:45:07;100593.88;;;5.19;89.80
63115;BME280;49208;50.874;6.466;2023-04-20T06:47:33;100583.34;;;5.18;91.93
63115;BME280;49208;50.874;6.466;2023-04-20T06:50:03;100585.03;;;5.25;93.12
63115;BME280;49208;50.874;6.466;2023-04-20T06:52:31;100584.94;;;5.31;93.54
63115;BME280;49208;50.874;6.466;2023-04-20T06:54:57;100589.28;;;5.35;91.78
63115;BME280;49208;50.874;6.466;2023-04-20T06:57:23;100576.91;;;5.40;91.77
63115;BME280;49208;50.874;6.466;2023-04-20T06:59:49;100575.91;;;5.51;93.22
63115;BME280;49208;50.874;6.466;2023-04-20T07:02:14;100578.38;;;5.64;93.96
63115;BME280;49208;50.874;6.466;2023-04-20T07:04:39;100571.16;;;5.77;94.07
63115;BME280;49208;50.874;6.466;2023-04-20T07:07:05;100574.59;;;5.82;92.49
63115;BME280;49208;50.874;6.466;2023-04-20T07:09:30;100571.00;;;5.88;91.61
63115;BME280;49208;50.874;6.466;2023-04-20T07:11:56;100569.19;;;5.92;92.23
63115;BME280;49208;50.874;6.466;2023-04-20T07:14:21;100573.59;;;5.91;90.80
63115;BME280;49208;50.874;6.466;2023-04-20T07:16:51;100564.81;;;5.89;91.32
63115;BME280;49208;50.874;6.466;2023-04-20T07:19:16;100570.22;;;5.81;89.89
63115;BME280;49208;50.874;6.466;2023-04-20T07:21:41;100566.81;;;5.72;91.65
63115;BME280;49208;50.874;6.466;2023-04-20T07:24:07;100568.69;;;5.65;91.69
63115;BME280;49208;50.874;6.466;2023-04-20T07:26:32;100571.38;;;5.60;90.69
63115;BME280;49208;50.874;6.466;2023-04-20T07:28:57;100571.47;;;5.53;90.08
63115;BME280;49208;50.874;6.466;2023-04-20T07:31:23;100570.69;;;5.44;90.76
63115;BME280;49208;50.874;6.466;2023-04-20T07:33:48;100570.78;;;5.38;90.80
63115;BME280;49208;50.874;6.466;2023-04-20T07:36:13;100570.84;;;5.32;90.30
63115;BME280;49208;50.874;6.466;2023-04-20T07:38:39;100572.63;;;5.30;92.60
63115;BME280;49208;50.874;6.466;2023-04-20T07:41:07;100569.16;;;5.26;93.07
63115;BME280;49208;50.874;6.466;2023-04-20T07:43:33;100577.13;;;5.23;93.43
63115;BME280;49208;50.874;6.466;2023-04-20T07:45:59;100577.13;;;5.22;92.87
63115;BME280;49208;50.874;6.466;2023-04-20T07:48:24;100579.75;;;5.25;94.34
63115;BME280;49208;50.874;6.466;2023-04-20T07:50:49;100573.56;;;5.26;96.26
63115;BME280;49208;50.874;6.466;2023-04-20T07:53:15;100570.84;;;5.32;96.75
63115;BME280;49208;50.874;6.466;2023-04-20T07:55:40;100577.06;;;5.28;94.81
63115;BME280;49208;50.874;6.466;2023-04-20T07:58:05;100576.16;;;5.29;95.87
63115;BME280;49208;50.874;6.466;2023-04-20T08:00:31;100576.13;;;5.32;95.65
63115;BME280;49208;50.874;6.466;2023-04-20T08:02:56;100569.91;;;5.36;95.48
63115;BME280;49208;50.874;6.466;2023-04-20T08:05:22;100566.34;;;5.42;97.44
63115;BME280;49208;50.874;6.466;2023-04-20T08:07:48;100569.78;;;5.45;97.81
63115;BME280;49208;50.874;6.466;2023-04-20T08:10:13;100562.72;;;5.49;96.77
63115;BME280;49208;50.874;6.466;2023-04-20T08:12:39;100567.91;;;5.55;97.83
63115;BME280;49208;50.874;6.466;2023-04-20T08:15:05;100564.28;;;5.64;98.31
63115;BME280;49208;50.874;6.466;2023-04-20T08:17:33;100565.13;;;5.66;97.14
63115;BME280;49208;50.874;6.466;2023-04-20T08:19:58;100566.91;;;5.64;95.93
63115;BME280;49208;50.874;6.466;2023-04-20T08:22:24;100560.78;;;5.63;95.95
63115;BME280;49208;50.874;6.466;2023-04-20T08:24:54;100560.84;;;5.59;95.96
63115;BME280;49208;50.874;6.466;2023-04-20T08:27:19;100562.56;;;5.60;95.38
63115;BME280;49208;50.874;6.466;2023-04-20T08:29:45;100554.66;;;5.60;95.62
63115;BME280;49208;50.874;6.466;2023-04-20T08:32:10;100558.16;;;5.62;95.86
63115;BME280;49208;50.874;6.466;2023-04-20T08:34:37;100558.91;;;5.72;96.46
63115;BME280;49208;50.874;6.466;2023-04-20T08:37:03;100561.47;;;5.75;97.44
63115;BME280;49208;50.874;6.466;2023-04-20T08:39:28;100558.91;;;5.70;95.97
63115;BME280;49208;50.874;6.466;2023-04-20T08:41:54;100558.13;;;5.63;97.07
63115;BME280;49208;50.874;6.466;2023-04-20T08:44:22;100554.72;;;5.54;97.37
63115;BME280;49208;50.874;6.466;2023-04-20T08:46:48;100550.38;;;5.50;97.89
63115;BME280;49208;50.874;6.466;2023-04-20T08:49:18;100551.28;;;5.49;97.96
63115;BME280;49208;50.874;6.466;2023-04-20T08:51:44;100542.38;;;5.57;98.60
63115;BME280;49208;50.874;6.466;2023-04-20T08:54:11;100549.25;;;5.69;98.55
63115;BME280;49208;50.874;6.466;2023-04-20T08:56:42;100546.50;;;5.77;98.30
63115;BME280;49208;50.874;6.466;2023-04-20T08:59:08;100539.31;;;5.86;98.66
63115;BME280;49208;50.874;6.466;2023-04-20T09:01:35;100544.38;;;6.03;98.76
63115;BME280;49208;50.874;6.466;2023-04-20T09:04:02;100539.75;;;6.18;98.70
63115;BME280;49208;50.874;6.466;2023-04-20T09:06:27;100537.78;;;6.31;98.38
63115;BME280;49208;50.874;6.466;2023-04-20T09:08:53;100537.56;;;6.43;97.46
63115;BME280;49208;50.874;6.466;2023-04-20T09:11:23;100536.38;;;6.61;98.14
63115;BME280;49208;50.874;6.466;2023-04-20T09:13:59;100534.44;;;6.71;96.42
63115;BME280;49208;50.874;6.466;2023-04-20T09:16:25;100532.47;;;6.82;96.70
63115;BME280;49208;50.874;6.466;2023-04-20T09:18:54;100531.50;;;6.86;96.67
63115;BME280;49208;50.874;6.466;2023-04-20T09:21:21;100529.34;;;7.08;97.92
63115;BME280;49208;50.874;6.466;2023-04-20T09:24:04;100520.88;;;7.33;97.99
63115;BME280;49208;50.874;6.466;2023-04-20T09:26:33;100518.47;;;7.62;99.72
63115;BME280;49208;50.874;6.466;2023-04-20T09:29:00;100515.28;;;7.87;97.11
63115;BME280;49208;50.874;6.466;2023-04-20T09:31:26;100523.00;;;7.96;93.99
63115;BME280;49208;50.874;6.466;2023-04-20T09:33:59;100517.69;;;7.96;93.41
63115;BME280;49208;50.874;6.466;2023-04-20T09:36:40;100518.50;;;8.00;93.59
63115;BME280;49208;50.874;6.466;2023-04-20T09:39:11;100515.13;;;7.93;93.18
63115;BME280;49208;50.874;6.466;2023-04-20T09:41:39;100522.38;;;7.85;93.33
63115;BME280;49208;50.874;6.466;2023-04-20T09:44:05;100518.31;;;7.70;94.16
63115;BME280;49208;50.874;6.466;2023-04-20T09:46:33;100515.16;;;7.51;93.77
63115;BME280;49208;50.874;6.466;2023-04-20T09:49:00;100519.22;;;7.28;91.89
63115;BME280;49208;50.874;6.466;2023-04-20T09:51:27;100516.25;;;7.00;92.56
63115;BME280;49208;50.874;6.466;2023-04-20T09:53:57;100513.81;;;6.90;92.78
63115;BME280;49208;50.874;6.466;2023-04-20T09:56:23;100517.47;;;6.82;93.27
63115;BME280;49208;50.874;6.466;2023-04-20T09:58:50;100513.34;;;6.67;94.68
63115;BME280;49208;50.874;6.466;2023-04-20T10:01:16;100520.63;;;6.55;96.68
63115;BME280;49208;50.874;6.466;2023-04-20T10:03:42;100518.22;;;6.41;97.36
63115;BME280;49208;50.874;6.466;2023-04-20T10:08:47;100511.28;;;6.35;95.65
63115;BME280;49208;50.874;6.466;2023-04-20T10:11:37;100505.59;;;6.57;96.77
63115;BME280;49208;50.874;6.466;2023-04-20T10:14:19;100513.19;;;6.75;97.77
63115;BME280;49208;50.874;6.466;2023-04-20T10:16:45;100504.44;;;6.72;95.85
63115;BME280;49208;50.874;6.466;2023-04-20T10:19:22;100498.03;;;6.85;96.31
63115;BME280;49208;50.874;6.466;2023-04-20T10:21:49;100495.19;;;6.94;96.27
63115;BME280;49208;50.874;6.466;2023-04-20T10:24:27;100506.63;;;6.95;97.24
63115;BME280;49208;50.874;6.466;2023-04-20T10:26:53;100498.81;;;6.88;96.07
63115;BME280;49208;50.874;6.466;2023-04-20T10:29:22;100502.47;;;6.83;96.84
63115;BME280;49208;50.874;6.466;2023-04-20T10:31:49;100503.63;;;6.68;98.49
63115;BME280;49208;50.874;6.466;2023-04-20T10:34:15;100511.84;;;6.53;95.46
63115;BME280;49208;50.874;6.466;2023-04-20T10:36:40;100523.69;;;6.30;95.11
63115;BME280;49208;50.874;6.466;2023-04-20T10:39:17;100509.19;;;6.01;94.34
63115;BME280;49208;50.874;6.466;2023-04-20T10:41:56;100509.41;;;5.86;96.96
63115;BME280;49208;50.874;6.466;2023-04-20T10:44:28;100508.72;;;5.73;96.23
63115;BME280;49208;50.874;6.466;2023-04-20T10:46:54;100503.53;;;5.64;95.76
63115;BME280;49208;50.874;6.466;2023-04-20T10:49:25;100499.78;;;5.82;97.09
63115;BME280;49208;50.874;6.466;2023-04-20T10:51:52;100498.50;;;6.09;95.28
63115;BME280;49208;50.874;6.466;2023-04-20T10:54:17;100489.00;;;6.48;96.04
63115;BME280;49208;50.874;6.466;2023-04-20T10:56:51;100495.66;;;7.15;97.42
63115;BME280;49208;50.874;6.466;2023-04-20T10:59:18;100479.19;;;7.81;92.83
63115;BME280;49208;50.874;6.466;2023-04-20T11:01:45;100479.38;;;8.45;90.36
63115;BME280;49208;50.874;6.466;2023-04-20T11:04:11;100475.44;;;8.93;89.42
63115;BME280;49208;50.874;6.466;2023-04-20T11:06:38;100470.47;;;9.12;83.49
63115;BME280;49208;50.874;6.466;2023-04-20T11:09:18;100468.50;;;9.48;80.06
63115;BME280;49208;50.874;6.466;2023-04-20T11:11:44;100472.84;;;10.06;81.88
63115;BME280;49208;50.874;6.466;2023-04-20T11:14:11;100464.06;;;10.57;82.08
63115;BME280;49208;50.874;6.466;2023-04-20T11:16:37;100462.56;;;10.99;82.42
63115;BME280;49208;50.874;6.466;2023-04-20T11:19:03;100460.47;;;11.07;78.88
63115;BME280;49208;50.874;6.466;2023-04-20T11:21:47;100465.41;;;10.69;75.47
63115;BME280;49208;50.874;6.466;2023-04-20T11:24:22;100466.97;;;9.40;79.24
63115;BME280;49208;50.874;6.466;2023-04-20T11:26:49;100461.84;;;8.73;83.15
63115;BME280;49208;50.874;6.466;2023-04-20T11:29:38;100458.31;;;8.38;85.29
63115;BME280;49208;50.874;6.466;2023-04-20T11:32:08;100467.97;;;8.06;86.92
63115;BME280;49208;50.874;6.466;2023-04-20T11:34:35;100465.03;;;8.53;89.99
63115;BME280;49208;50.874;6.466;2023-04-20T11:37:05;100453.16;;;8.99;89.86
63115;BME280;49208;50.874;6.466;2023-04-20T11:39:32;100450.28;;;9.36;85.91
63115;BME280;49208;50.874;6.466;2023-04-20T11:41:58;100447.34;;;9.16;86.58
63115;BME280;49208;50.874;6.466;2023-04-20T11:44:24;100444.69;;;9.16;83.43
63115;BME280;49208;50.874;6.466;2023-04-20T11:46:50;100441.28;;;9.10;86.67
63115;BME280;49208;50.874;6.466;2023-04-20T11:49:19;100451.53;;;9.23;87.71
63115;BME280;49208;50.874;6.466;2023-04-20T11:51:45;100450.75;;;9.19;78.71
63115;BME280;49208;50.874;6.466;2023-04-20T11:54:11;100451.72;;;9.17;82.69
63115;BME280;49208;50.874;6.466;2023-04-20T11:56:37;100439.03;;;9.26;81.41
63115;BME280;49208;50.874;6.466;2023-04-20T11:59:03;100435.44;;;8.99;82.24
63115;BME280;49208;50.874;6.466;2023-04-20T12:01:29;100443.00;;;8.82;81.46
63115;BME280;49208;50.874;6.466;2023-04-20T12:03:54;100442.38;;;8.74;83.61
63115;BME280;49208;50.874;6.466;2023-04-20T12:06:20;100449.06;;;8.54;82.16
63115;BME280;49208;50.874;6.466;2023-04-20T12:08:46;100444.03;;;8.45;84.06
63115;BME280;49208;50.874;6.466;2023-04-20T12:11:12;100447.69;;;8.41;86.25
63115;BME280;49208;50.874;6.466;2023-04-20T12:13:38;100453.97;;;8.35;83.27
63115;BME280;49208;50.874;6.466;2023-04-20T12:16:03;100449.69;;;8.29;84.16
63115;BME280;49208;50.874;6.466;2023-04-20T12:18:29;100456.59;;;8.37;86.75
63115;BME280;49208;50.874;6.466;2023-04-20T12:20:54;100447.69;;;8.41;81.95
63115;BME280;49208;50.874;6.466;2023-04-20T12:23:19;100449.94;;;8.55;80.14
63115;BME280;49208;50.874;6.466;2023-04-20T12:25:45;100453.19;;;8.66;78.73
63115;BME280;49208;50.874;6.466;2023-04-20T12:28:10;100438.81;;;8.73;80.07
63115;BME280;49208;50.874;6.466;2023-04-20T12:30:36;100440.34;;;8.82;78.06
63115;BME280;49208;50.874;6.466;2023-04-20T12:33:02;100430.09;;;9.01;79.85
63115;BME280;49208;50.874;6.466;2023-04-20T12:35:28;100434.59;;;9.27;82.48
63115;BME280;49208;50.874;6.466;2023-04-20T12:37:54;100433.94;;;9.77;78.67
63115;BME280;49208;50.874;6.466;2023-04-20T12:40:20;100424.06;;;10.07;74.79
63115;BME280;49208;50.874;6.466;2023-04-20T12:42:46;100430.16;;;10.37;72.64
63115;BME280;49208;50.874;6.466;2023-04-20T12:45:11;100437.38;;;10.34;69.06
63115;BME280;49208;50.874;6.466;2023-04-20T12:47:37;100424.56;;;10.18;70.90
63115;BME280;49208;50.874;6.466;2023-04-20T12:50:02;100435.22;;;10.18;69.78
63115;BME280;49208;50.874;6.466;2023-04-20T12:52:28;100422.03;;;10.15;68.57
63115;BME280;49208;50.874;6.466;2023-04-20T12:54:53;100434.25;;;9.94;68.65
63115;BME280;49208;50.874;6.466;2023-04-20T12:57:19;100419.72;;;9.78;71.41
63115;BME280;49208;50.874;6.466;2023-04-20T12:59:44;100426.88;;;9.76;70.66
63115;BME280;49208;50.874;6.466;2023-04-20T13:02:12;100422.81;;;9.92;70.61
63115;BME280;49208;50.874;6.466;2023-04-20T13:04:38;100424.38;;;9.98;69.60
63115;BME280;49208;50.874;6.466;2023-04-20T13:07:03;100432.50;;;9.93;69.48
63115;BME280;49208;50.874;6.466;2023-04-20T13:09:28;100420.31;;;10.12;69.21
63115;BME280;49208;50.874;6.466;2023-04-20T13:11:54;100412.63;;;10.57;68.34
63115;BME280;49208;50.874;6.466;2023-04-20T13:14:20;100411.56;;;10.86;64.11
63115;BME280;49208;50.874;6.466;2023-04-20T13:16:45;100409.72;;;11.10;61.58
63115;BME280;49208;50.874;6.466;2023-04-20T13:19:11;100419.44;;;11.35;62.56
63115;BME280;49208;50.874;6.466;2023-04-20T13:21:36;100403.38;;;11.14;60.86
63115;BME280;49208;50.874;6.466;2023-04-20T13:24:01;100411.50;;;10.87;62.87
63115;BME280;49208;50.874;6.466;2023-04-20T13:26:27;100417.78;;;10.61;64.65
63115;BME280;49208;50.874;6.466;2023-04-20T13:28:52;100419.84;;;10.53;65.96
63115;BME280;49208;50.874;6.466;2023-04-20T13:31:18;100409.31;;;10.50;63.94
63115;BME280;49208;50.874;6.466;2023-04-20T13:33:44;100418.72;;;10.84;66.93
63115;BME280;49208;50.874;6.466;2023-04-20T13:36:09;100412.22;;;10.91;64.29
63115;BME280;49208;50.874;6.466;2023-04-20T13:38:35;100411.06;;;10.75;64.28
63115;BME280;49208;50.874;6.466;2023-04-20T13:41:00;100403.84;;;11.02;65.23
63115;BME280;49208;50.874;6.466;2023-04-20T13:43:25;100401.13;;;11.03;61.66
63115;BME280;49208;50.874;6.466;2023-04-20T13:45:51;100401.81;;;11.08;62.83
63115;BME280;49208;50.874;6.466;2023-04-20T13:48:16;100397.22;;;11.36;63.60
63115;BME280;49208;50.874;6.466;2023-04-20T13:50:41;100398.56;;;11.68;63.02
63115;BME280;49208;50.874;6.466;2023-04-20T13:53:07;100399.50;;;11.67;60.96
63115;BME280;49208;50.874;6.466;2023-04-20T13:55:32;100391.50;;;11.45;59.58
63115;BME280;49208;50.874;6.466;2023-04-20T13:57:58;100387.38;;;11.14;58.88
63115;BME280;49208;50.874;6.466;2023-04-20T14:00:23;100384.97;;;10.84;60.36
63115;BME280;49208;50.874;6.466;2023-04-20T14:02:50;100385.59;;;10.91;62.43
63115;BME280;49208;50.874;6.466;2023-04-20T14:05:16;100385.56;;;10.92;61.01
63115;BME280;49208;50.874;6.466;2023-04-20T14:07:42;100375.31;;;10.82;60.00
63115;BME280;49208;50.874;6.466;2023-04-20T14:10:07;100387.28;;;10.70;60.86
63115;BME280;49208;50.874;6.466;2023-04-20T14:12:33;100377.66;;;10.42;60.40
63115;BME280;49208;50.874;6.466;2023-04-20T14:14:59;100378.72;;;10.37;60.50
63115;BME280;49208;50.874;6.466;2023-04-20T14:17:24;100371.75;;;10.34;60.64
63115;BME280;49208;50.874;6.466;2023-04-20T14:19:50;100369.97;;;10.33;61.37
63115;BME280;49208;50.874;6.466;2023-04-20T14:22:16;100374.06;;;10.43;62.84
63115;BME280;49208;50.874;6.466;2023-04-20T14:24:42;100357.22;;;10.66;59.71
63115;BME280;49208;50.874;6.466;2023-04-20T14:27:09;100357.75;;;11.00;61.14
63115;BME280;49208;50.874;6.466;2023-04-20T14:29:35;100358.44;;;11.05;56.35
63115;BME280;49208;50.874;6.466;2023-04-20T14:32:00;100353.59;;;10.92;56.09
63115;BME280;49208;50.874;6.466;2023-04-20T14:34:25;100349.31;;;10.88;56.89
63115;BME280;49208;50.874;6.466;2023-04-20T14:36:51;100349.94;;;10.95;57.84
63115;BME280;49208;50.874;6.466;2023-04-20T14:39:18;100346.88;;;11.28;57.14
63115;BME280;49208;50.874;6.466;2023-04-20T14:41:44;100346.50;;;11.59;56.24
63115;BME280;49208;50.874;6.466;2023-04-20T14:44:09;100344.28;;;11.91;56.63
63115;BME280;49208;50.874;6.466;2023-04-20T14:46:35;100341.53;;;12.15;57.50
63115;BME280;49208;50.874;6.466;2023-04-20T14:49:00;100331.75;;;12.13;51.60
63115;BME280;49208;50.874;6.466;2023-04-20T14:51:26;100331.75;;;12.34;54.39
63115;BME280;49208;50.874;6.466;2023-04-20T14:53:52;100331.75;;;12.34;52.55
63115;BME280;49208;50.874;6.466;2023-04-20T14:56:17;100331.19;;;12.46;52.77
63115;BME280;49208;50.874;6.466;2023-04-20T14:58:43;100323.94;;;12.50;49.96
63115;BME280;49208;50.874;6.466;2023-04-20T15:01:08;100336.94;;;12.58;49.28
63115;BME280;49208;50.874;6.466;2023-04-20T15:03:33;100330.13;;;12.50;50.08
63115;BME280;49208;50.874;6.466;2023-04-20T15:06:00;100333.19;;;12.22;50.66
63115;BME280;49208;50.874;6.466;2023-04-20T15:08:26;100323.38;;;12.02;51.17
63115;BME280;49208;50.874;6.466;2023-04-20T15:10:52;100329.84;;;11.54;50.56
63115;BME280;49208;50.874;6.466;2023-04-20T15:13:23;100325.63;;;11.48;52.62
63115;BME280;49208;50.874;6.466;2023-04-20T15:15:49;100315.97;;;11.46;53.37
63115;BME280;49208;50.874;6.466;2023-04-20T15:18:15;100319.72;;;11.40;51.45
63115;BME280;49208;50.874;6.466;2023-04-20T15:20:41;100315.75;;;11.28;50.00
63115;BME280;49208;50.874;6.466;2023-04-20T15:23:06;100316.81;;;11.24;51.73
63115;BME280;49208;50.874;6.466;2023-04-20T15:25:32;100330.03;;;11.27;52.68
63115;BME280;49208;50.874;6.466;2023-04-20T15:27:57;100325.00;;;11.20;53.07
63115;BME280;49208;50.874;6.466;2023-04-20T15:30:23;100313.09;;;11.28;54.26
63115;BME280;49208;50.874;6.466;2023-04-20T15:32:48;100314.00;;;11.29;53.35
63115;BME280;49208;50.874;6.466;2023-04-20T15:35:13;100318.50;;;11.27;54.42
63115;BME280;49208;50.874;6.466;2023-04-20T15:37:39;100322.03;;;11.27;53.45
63115;BME280;49208;50.874;6.466;2023-04-20T15:40:05;100316.19;;;11.18;54.13
63115;BME280;49208;50.874;6.466;2023-04-20T15:42:30;100323.56;;;11.11;52.79
63115;BME280;49208;50.874;6.466;2023-04-20T15:44:57;100315.03;;;11.03;54.80
63115;BME280;49208;50.874;6.466;2023-04-20T15:47:22;100317.69;;;11.03;53.08
63115;BME280;49208;50.874;6.466;2023-04-20T15:49:48;100313.41;;;10.99;52.82
63115;BME280;49208;50.874;6.466;2023-04-20T15:52:13;100312.66;;;10.95;52.76
63115;BME280;49208;50.874;6.466;2023-04-20T15:54:38;100318.06;;;10.94;53.20
63115;BME280;49208;50.874;6.466;2023-04-20T15:57:04;100322.63;;;10.90;52.39
63115;BME280;49208;50.874;6.466;2023-04-20T15:59:29;100318.97;;;10.92;53.43
63115;BME280;49208;50.874;6.466;2023-04-20T16:01:55;100319.91;;;10.91;53.37
63115;BME280;49208;50.874;6.466;2023-04-20T16:04:20;100315.50;;;10.90;53.77
63115;BME280;49208;50.874;6.466;2023-04-20T16:06:46;100313.25;;;10.80;52.07
63115;BME280;49208;50.874;6.466;2023-04-20T16:09:11;100312.63;;;10.73;53.20
63115;BME280;49208;50.874;6.466;2023-04-20T16:11:38;100314.81;;;10.62;53.13
63115;BME280;49208;50.874;6.466;2023-04-20T16:14:04;100313.78;;;10.66;53.22
63115;BME280;49208;50.874;6.466;2023-04-20T16:16:29;100314.63;;;10.66;53.56
63115;BME280;49208;50.874;6.466;2023-04-20T16:18:54;100312.06;;;10.65;53.59
63115;BME280;49208;50.874;6.466;2023-04-20T16:21:20;100322.53;;;10.69;52.52
63115;BME280;49208;50.874;6.466;2023-04-20T16:23:50;100320.03;;;10.65;53.93
63115;BME280;49208;50.874;6.466;2023-04-20T16:26:16;100317.44;;;10.63;53.55
63115;BME280;49208;50.874;6.466;2023-04-20T16:28:41;100319.38;;;10.58;53.27
63115;BME280;49208;50.874;6.466;2023-04-20T16:31:07;100316.03;;;10.53;54.10
63115;BME280;49208;50.874;6.466;2023-04-20T16:33:34;100317.94;;;10.49;53.96
63115;BME280;49208;50.874;6.466;2023-04-20T16:35:59;100317.34;;;10.41;54.72
63115;BME280;49208;50.874;6.466;2023-04-20T16:38:26;100320.31;;;10.34;54.63
63115;BME280;49208;50.874;6.466;2023-04-20T16:40:51;100322.91;;;10.35;53.64
63115;BME280;49208;50.874;6.466;2023-04-20T16:43:16;100328.34;;;10.32;54.07
63115;BME280;49208;50.874;6.466;2023-04-20T16:45:42;100322.09;;;10.33;55.09
63115;BME280;49208;50.874;6.466;2023-04-20T16:48:07;100324.53;;;10.39;56.39
63115;BME280;49208;50.874;6.466;2023-04-20T16:50:32;100324.31;;;10.45;53.76
63115;BME280;49208;50.874;6.466;2023-04-20T16:52:59;100323.34;;;10.48;53.60
63115;BME280;49208;50.874;6.466;2023-04-20T16:55:25;100322.28;;;10.52;54.42
63115;BME280;49208;50.874;6.466;2023-04-20T16:57:50;100320.75;;;10.46;53.77
63115;BME280;49208;50.874;6.466;2023-04-20T17:00:16;100316.41;;;10.44;54.18
63115;BME280;49208;50.874;6.466;2023-04-20T17:02:41;100320.09;;;10.40;54.49
63115;BME280;49208;50.874;6.466;2023-04-20T17:05:07;100313.25;;;10.32;54.77
63115;BME280;49208;50.874;6.466;2023-04-20T17:07:32;100313.44;;;10.26;54.92
63115;BME280;49208;50.874;6.466;2023-04-20T17:10:00;100310.25;;;10.17;54.20
63115;BME280;49208;50.874;6.466;2023-04-20T17:12:25;100316.53;;;10.14;54.00
63115;BME280;49208;50.874;6.466;2023-04-20T17:14:51;100314.69;;;10.16;53.41
63115;BME280;49208;50.874;6.466;2023-04-20T17:17:16;100312.69;;;10.23;54.01
63115;BME280;49208;50.874;6.466;2023-04-20T17:19:41;100314.06;;;10.35;54.22
63115;BME280;49208;50.874;6.466;2023-04-20T17:22:07;100314.47;;;10.47;53.60
63115;BME280;49208;50.874;6.466;2023-04-20T17:24:33;100315.81;;;10.59;55.04
63115;BME280;49208;50.874;6.466;2023-04-20T17:26:59;100314.53;;;10.69;52.93
63115;BME280;49208;50.874;6.466;2023-04-20T17:29:25;100320.50;;;10.76;51.64
63115;BME280;49208;50.874;6.466;2023-04-20T17:31:51;100327.66;;;10.74;52.80
63115;BME280;49208;50.874;6.466;2023-04-20T17:34:17;100330.50;;;10.69;52.65
63115;BME280;49208;50.874;6.466;2023-04-20T17:36:43;100356.50;;;10.63;54.25
63115;BME280;49208;50.874;6.466;2023-04-20T17:39:08;100370.53;;;10.43;58.76
63115;BME280;49208;50.874;6.466;2023-04-20T17:41:34;100369.75;;;10.14;62.55
63115;BME280;49208;50.874;6.466;2023-04-20T17:44:00;100373.44;;;9.83;66.50
63115;BME280;49208;50.874;6.466;2023-04-20T17:46:25;100379.84;;;9.51;69.22
63115;BME280;49208;50.874;6.466;2023-04-20T17:48:50;100377.19;;;9.23;74.45
63115;BME280;49208;50.874;6.466;2023-04-20T17:51:16;100390.16;;;9.04;77.10
63115;BME280;49208;50.874;6.466;2023-04-20T17:53:41;100388.88;;;8.87;78.40
63115;BME280;49208;50.874;6.466;2023-04-20T17:56:06;100387.69;;;8.68;80.93
63115;BME280;49208;50.874;6.466;2023-04-20T17:58:32;100391.56;;;8.55;81.83
63115;BME280;49208;50.874;6.466;2023-04-20T18:00:57;100394.69;;;8.36;83.62
63115;BME280;49208;50.874;6.466;2023-04-20T18:03:22;100404.78;;;8.23;85.35
63115;BME280;49208;50.874;6.466;2023-04-20T18:05:48;100389.16;;;8.13;86.21
63115;BME280;49208;50.874;6.466;2023-04-20T18:08:13;100394.72;;;8.03;86.97
63115;BME280;49208;50.874;6.466;2023-04-20T18:10:40;100398.53;;;7.92;87.27
63115;BME280;49208;50.874;6.466;2023-04-20T18:13:05;100398.66;;;7.87;88.55
63115;BME280;49208;50.874;6.466;2023-04-20T18:15:31;100412.03;;;7.82;88.37
63115;BME280;49208;50.874;6.466;2023-04-20T18:17:56;100408.63;;;7.77;89.02
63115;BME280;49208;50.874;6.466;2023-04-20T18:20:22;100414.84;;;7.76;90.25
63115;BME280;49208;50.874;6.466;2023-04-20T18:22:47;100412.22;;;7.75;89.70
63115;BME280;49208;50.874;6.466;2023-04-20T18:25:15;100412.28;;;7.72;90.98
63115;BME280;49208;50.874;6.466;2023-04-20T18:27:41;100411.41;;;7.71;91.52
63115;BME280;49208;50.874;6.466;2023-04-20T18:30:07;100421.19;;;7.69;93.02
63115;BME280;49208;50.874;6.466;2023-04-20T18:32:33;100417.72;;;7.65;92.30
63115;BME280;49208;50.874;6.466;2023-04-20T18:35:01;100408.03;;;7.64;92.21
63115;BME280;49208;50.874;6.466;2023-04-20T18:37:26;100402.13;;;7.53;91.59
63115;BME280;49208;50.874;6.466;2023-04-20T18:39:52;100408.38;;;7.51;92.49
63115;BME280;49208;50.874;6.466;2023-04-20T18:42:17;100414.59;;;7.49;92.51
63115;BME280;49208;50.874;6.466;2023-04-20T18:44:43;100417.28;;;7.46;92.41
63115;BME280;49208;50.874;6.466;2023-04-20T18:47:08;100420.03;;;7.43;93.37
63115;BME280;49208;50.874;6.466;2023-04-20T18:49:33;100420.06;;;7.40;93.33
63115;BME280;49208;50.874;6.466;2023-04-20T18:51:59;100413.94;;;7.38;91.84
63115;BME280;49208;50.874;6.466;2023-04-20T18:54:25;100423.66;;;7.39;90.54